createdAt,value
2018-03-19T00:02:11.718Z,65.10
2018-03-19T00:04:39.178Z,65.70
2018-03-19T00:07:06.635Z,65.90
2018-03-19T00:09:34.100Z,64.60
2018-03-19T00:12:01.561Z,64.80
2018-03-19T00:14:29.067Z,65.10
2018-03-19T00:16:56.485Z,64.40
2018-03-19T00:19:23.949Z,64.90
2018-03-19T00:21:51.404Z,65.60
2018-03-19T00:24:18.852Z,64.30
2018-03-19T00:26:46.312Z,64.50
2018-03-19T00:29:13.767Z,65.50
2018-03-19T00:31:41.228Z,65.00
2018-03-19T00:34:08.681Z,64.50
2018-03-19T00:36:36.140Z,64.20
2018-03-19T00:39:03.600Z,65.20
2018-03-19T00:41:31.059Z,64.20
2018-03-19T00:43:58.517Z,64.30
2018-03-19T00:46:25.983Z,65.10
2018-03-19T00:48:54.208Z,64.90
2018-03-19T00:51:21.668Z,64.90
2018-03-19T00:53:49.128Z,65.10
2018-03-19T00:56:16.593Z,65.20
2018-03-19T00:58:44.057Z,64.60
2018-03-19T01:01:11.522Z,65.10
2018-03-19T01:03:38.971Z,65.20
2018-03-19T01:06:06.429Z,64.30
2018-03-19T01:08:33.888Z,65.00
2018-03-19T01:11:01.348Z,65.10
2018-03-19T01:13:28.806Z,64.90
2018-03-19T01:15:56.259Z,66.00
2018-03-19T01:18:23.756Z,64.60
2018-03-19T01:20:51.217Z,64.10
2018-03-19T01:23:18.678Z,63.80
2018-03-19T01:25:46.133Z,63.50
2018-03-19T01:28:13.588Z,64.20
2018-03-19T01:30:41.042Z,64.00
2018-03-19T01:33:08.501Z,63.60
2018-03-19T01:35:35.956Z,64.60
2018-03-19T01:38:03.411Z,64.30
2018-03-19T01:40:30.869Z,64.30
2018-03-19T01:42:59.179Z,65.00
2018-03-19T01:45:26.631Z,63.80
2018-03-19T01:47:54.084Z,63.00
2018-03-19T01:50:21.564Z,63.60
2018-03-19T01:52:49.004Z,63.20
2018-03-19T01:55:16.462Z,62.80
2018-03-19T01:57:43.918Z,63.00
2018-03-19T02:00:11.372Z,63.30
2018-03-19T02:02:39.586Z,63.30
2018-03-19T02:05:07.048Z,63.60
2018-03-19T02:07:35.283Z,63.10
2018-03-19T02:10:02.736Z,63.00
2018-03-19T02:12:30.192Z,62.50
2018-03-19T02:14:57.640Z,62.70
2018-03-19T02:17:25.108Z,63.80
2018-03-19T02:19:52.564Z,62.50
2018-03-19T02:22:20.025Z,63.90
2018-03-19T02:24:47.489Z,64.20
2018-03-19T02:27:14.969Z,63.50
2018-03-19T02:29:42.414Z,63.80
2018-03-19T02:32:09.886Z,63.60
2018-03-19T02:34:38.109Z,63.90
2018-03-19T02:37:05.576Z,63.80
2018-03-19T02:39:33.797Z,63.90
2018-03-19T02:42:02.106Z,63.60
2018-03-19T02:44:29.547Z,63.60
2018-03-19T02:46:57.048Z,63.00
2018-03-19T02:49:24.469Z,63.00
2018-03-19T02:51:51.959Z,63.20
2018-03-19T02:54:19.394Z,63.50
2018-03-19T02:56:46.851Z,63.00
2018-03-19T02:59:14.305Z,63.30
2018-03-19T03:01:41.763Z,63.50
2018-03-19T03:04:09.212Z,63.80
2018-03-19T03:06:36.678Z,62.70
2018-03-19T03:09:04.128Z,63.00
2018-03-19T03:11:31.580Z,63.10
2018-03-19T03:13:59.031Z,62.30
2018-03-19T03:16:26.497Z,63.10
2018-03-19T03:18:53.945Z,63.60
2018-03-19T03:21:21.400Z,63.10
2018-03-19T03:23:48.851Z,63.20
2018-03-19T03:26:16.307Z,63.40
2018-03-19T03:28:43.764Z,63.10
2018-03-19T03:31:11.219Z,62.50
2018-03-19T03:33:38.669Z,62.30
2018-03-19T03:36:06.130Z,63.20
2018-03-19T03:38:33.575Z,62.20
2018-03-19T03:41:01.796Z,62.50
2018-03-19T03:43:30.017Z,62.40
2018-03-19T03:45:58.233Z,62.40
2018-03-19T03:48:25.684Z,62.40
2018-03-19T03:50:53.136Z,63.10
2018-03-19T03:53:20.591Z,62.80
2018-03-19T03:55:48.050Z,62.20
2018-03-19T03:58:15.503Z,62.80
2018-03-19T04:00:42.962Z,61.70
2018-03-19T04:03:10.418Z,62.10
2018-03-19T04:05:37.877Z,61.60
2018-03-19T04:08:05.333Z,61.80
2018-03-19T04:10:32.791Z,62.50
2018-03-19T04:13:00.251Z,62.80
2018-03-19T04:15:27.708Z,63.40
2018-03-19T04:17:55.156Z,62.80
2018-03-19T04:20:22.612Z,62.60
2018-03-19T04:22:50.073Z,62.80
2018-03-19T04:25:17.528Z,61.90
2018-03-19T04:27:44.995Z,62.10
2018-03-19T04:30:12.453Z,61.80
2018-03-19T04:32:39.963Z,62.50
2018-03-19T04:35:08.224Z,61.60
2018-03-19T04:37:35.675Z,61.60
2018-03-19T04:40:03.128Z,61.40
2018-03-19T04:42:30.580Z,60.60
2018-03-19T04:44:58.031Z,61.60
2018-03-19T04:47:25.485Z,61.10
2018-03-19T04:49:52.944Z,62.00
2018-03-19T04:52:20.398Z,61.90
2018-03-19T04:54:47.852Z,62.00
2018-03-19T04:57:15.317Z,62.90
2018-03-19T04:59:42.777Z,63.00
2018-03-19T05:02:10.534Z,62.60
2018-03-19T05:04:37.988Z,63.00
2018-03-19T05:07:05.444Z,63.70
2018-03-19T05:09:32.905Z,65.00
2018-03-19T05:12:00.362Z,64.50
2018-03-19T05:14:27.808Z,62.80
2018-03-19T05:16:55.260Z,62.70
2018-03-19T05:19:22.716Z,63.80
2018-03-19T05:21:50.164Z,65.10
2018-03-19T05:24:17.611Z,65.00
2018-03-19T05:26:45.059Z,64.50
2018-03-19T05:29:12.513Z,63.90
2018-03-19T05:31:39.987Z,63.10
2018-03-19T05:34:07.442Z,63.70
2018-03-19T05:36:34.892Z,63.80
2018-03-19T05:39:02.361Z,63.10
2018-03-19T05:41:29.816Z,63.70
2018-03-19T05:43:57.269Z,63.50
2018-03-19T05:46:24.730Z,63.40
2018-03-19T05:48:52.188Z,62.10
2018-03-19T05:51:19.643Z,62.10
2018-03-19T05:53:47.868Z,61.90
2018-03-19T05:56:16.092Z,60.90
2018-03-19T05:58:43.546Z,61.00
2018-03-19T06:01:10.996Z,60.70
2018-03-19T06:03:38.449Z,60.90
2018-03-19T06:06:05.904Z,61.30
2018-03-19T06:08:33.356Z,62.80
2018-03-19T06:11:00.812Z,62.60
2018-03-19T06:13:28.264Z,61.60
2018-03-19T06:15:55.749Z,62.10
2018-03-19T06:18:23.204Z,62.90
2018-03-19T06:20:50.651Z,63.60
2018-03-19T06:23:18.876Z,63.00
2018-03-19T06:25:47.097Z,62.30
2018-03-19T06:28:14.552Z,62.30
2018-03-19T06:30:42.002Z,62.90
2018-03-19T06:33:09.453Z,62.60
2018-03-19T06:35:36.909Z,63.00
2018-03-19T06:38:04.364Z,62.70
2018-03-19T06:40:31.817Z,62.30
2018-03-19T06:42:59.280Z,63.10
2018-03-19T06:45:26.728Z,62.70
2018-03-19T06:47:54.194Z,61.10
2018-03-19T06:50:21.649Z,59.90
2018-03-19T06:52:49.117Z,59.30
2018-03-19T06:55:16.569Z,58.30
2018-03-19T06:57:44.036Z,58.80
2018-03-19T07:00:12.253Z,58.40
2018-03-19T07:02:40.473Z,57.70
2018-03-19T07:05:07.931Z,57.60
2018-03-19T07:07:35.384Z,57.20
2018-03-19T07:10:02.835Z,57.40
2018-03-19T07:12:30.301Z,56.40
2018-03-19T07:14:57.747Z,56.20
2018-03-19T07:17:25.298Z,56.50
2018-03-19T07:19:52.749Z,55.70
2018-03-19T07:22:20.191Z,54.30
2018-03-19T07:24:48.406Z,52.00
2018-03-19T07:27:15.852Z,52.00
2018-03-19T07:29:43.304Z,50.90
2018-03-19T07:32:10.753Z,50.70
2018-03-19T07:34:38.250Z,51.00
2018-03-19T07:37:05.660Z,50.20
2018-03-19T07:39:33.103Z,49.40
2018-03-19T07:42:01.317Z,42.70
2018-03-19T07:44:28.763Z,42.70
2018-03-19T07:46:56.206Z,39.40
2018-03-19T07:49:23.653Z,35.60
2018-03-19T07:51:51.109Z,33.10
2018-03-19T07:54:18.569Z,29.50
2018-03-19T07:56:46.021Z,26.00
2018-03-19T07:59:13.464Z,25.60
2018-03-19T08:01:41.693Z,23.20
2018-03-19T08:04:09.139Z,23.10
2018-03-19T08:06:36.597Z,21.80
2018-03-19T08:09:04.049Z,22.20
2018-03-19T08:11:31.501Z,20.30
2018-03-19T08:13:58.945Z,18.80
2018-03-19T08:16:26.396Z,18.40
2018-03-19T08:18:53.864Z,17.70
2018-03-19T08:21:21.311Z,18.30
2018-03-19T08:23:48.767Z,17.40
2018-03-19T08:26:16.217Z,17.60
2018-03-19T08:28:43.668Z,17.00
2018-03-19T08:31:11.111Z,18.80
2018-03-19T08:33:38.564Z,17.80
2018-03-19T08:36:06.784Z,18.70
2018-03-19T08:38:34.233Z,18.60
2018-03-19T08:41:01.691Z,18.50
2018-03-19T08:43:29.137Z,17.50
2018-03-19T08:45:56.586Z,17.30
2018-03-19T08:48:24.046Z,17.40
2018-03-19T08:50:51.492Z,16.30
2018-03-19T08:53:18.956Z,15.60
2018-03-19T08:55:46.409Z,16.00
2018-03-19T08:58:13.859Z,15.30
2018-03-19T09:00:41.314Z,14.40
2018-03-19T09:03:09.532Z,15.40
2018-03-19T09:05:36.987Z,15.40
2018-03-19T09:08:04.448Z,14.60
2018-03-19T09:10:31.900Z,13.60
2018-03-19T09:12:59.356Z,15.20
2018-03-19T09:15:26.804Z,13.60
2018-03-19T09:17:54.284Z,14.30
2018-03-19T09:20:21.732Z,15.40
2018-03-19T09:22:49.184Z,14.50
2018-03-19T09:25:16.632Z,14.70
2018-03-19T09:27:44.085Z,16.10
2018-03-19T09:30:11.527Z,14.80
2018-03-19T09:32:38.984Z,14.30
2018-03-19T09:35:06.480Z,14.20
2018-03-19T09:37:33.910Z,13.60
2018-03-19T09:40:01.372Z,14.70
2018-03-19T09:42:28.813Z,15.40
2018-03-19T09:44:56.265Z,15.90
2018-03-19T09:47:23.707Z,15.90
2018-03-19T09:49:51.162Z,15.60
2018-03-19T09:52:18.622Z,13.90
2018-03-19T09:54:46.076Z,14.50
2018-03-19T09:57:13.524Z,14.50
2018-03-19T09:59:41.740Z,15.10
2018-03-19T10:02:09.193Z,15.10
2018-03-19T10:04:36.648Z,14.70
2018-03-19T10:07:04.100Z,13.70
2018-03-19T10:09:31.556Z,14.30
2018-03-19T10:11:59.008Z,14.10
2018-03-19T10:14:26.473Z,14.00
2018-03-19T10:16:53.936Z,14.10
2018-03-19T10:19:21.392Z,15.00
2018-03-19T10:21:49.609Z,13.90
2018-03-19T10:24:17.836Z,13.80
2018-03-19T10:26:45.292Z,13.80
2018-03-19T10:29:12.748Z,14.30
2018-03-19T10:31:40.200Z,15.00
2018-03-19T10:34:07.671Z,15.70
2018-03-19T10:36:35.119Z,13.70
2018-03-19T10:39:02.581Z,13.40
2018-03-19T10:41:30.800Z,15.10
2018-03-19T10:43:59.032Z,14.60
2018-03-19T10:46:26.476Z,14.50
2018-03-19T10:48:53.936Z,16.00
2018-03-19T10:51:22.158Z,15.30
2018-03-19T10:53:50.369Z,15.30
2018-03-19T10:56:17.831Z,15.30
2018-03-19T10:58:45.278Z,15.20
2018-03-19T11:01:12.767Z,17.80
2018-03-19T11:03:40.193Z,16.20
2018-03-19T11:06:13.488Z,17.30
2018-03-19T11:08:55.822Z,17.10
2018-03-19T11:11:23.272Z,15.60
2018-03-19T11:13:50.732Z,16.70
2018-03-19T11:16:18.185Z,16.40
2018-03-19T11:18:45.637Z,17.50
2018-03-19T11:21:13.083Z,17.30
2018-03-19T11:23:40.539Z,18.20
2018-03-19T11:26:07.988Z,17.70
2018-03-19T11:28:35.468Z,19.00
2018-03-19T11:31:02.928Z,18.40
2018-03-19T11:33:30.382Z,19.90
2018-03-19T11:35:57.837Z,20.40
2018-03-19T11:38:25.292Z,22.70
2018-03-19T11:40:52.740Z,22.50
2018-03-19T11:43:20.200Z,21.70
2018-03-19T11:45:48.419Z,22.60
2018-03-19T11:48:16.633Z,21.30
2018-03-19T11:50:44.088Z,21.30
2018-03-19T11:53:11.545Z,20.50
2018-03-19T11:55:39.000Z,22.20
2018-03-19T11:58:06.474Z,23.40
2018-03-19T12:00:34.004Z,23.50
2018-03-19T12:03:01.449Z,23.50
2018-03-19T12:05:28.913Z,21.60
2018-03-19T12:07:56.357Z,23.30
2018-03-19T12:10:23.812Z,22.90
2018-03-19T12:12:52.021Z,24.80
2018-03-19T12:15:19.476Z,24.80
2018-03-19T12:17:46.912Z,24.90
2018-03-19T12:20:14.368Z,26.70
2018-03-19T12:22:41.812Z,26.10
2018-03-19T12:25:09.260Z,25.60
2018-03-19T12:27:37.472Z,26.50
2018-03-19T12:30:04.931Z,26.50
2018-03-19T12:32:32.376Z,28.00
2018-03-19T12:34:59.838Z,26.70
2018-03-19T12:37:27.276Z,27.50
2018-03-19T12:39:54.724Z,25.90
2018-03-19T12:42:22.223Z,27.70
2018-03-19T12:44:50.393Z,26.60
2018-03-19T12:47:17.844Z,26.60
2018-03-19T12:49:45.316Z,25.60
2018-03-19T12:52:12.760Z,24.80
2018-03-19T12:54:40.206Z,24.90
2018-03-19T12:57:07.653Z,23.70
2018-03-19T12:59:35.105Z,26.00
2018-03-19T13:02:02.555Z,24.90
2018-03-19T13:04:30.014Z,24.00
2018-03-19T13:06:57.462Z,25.20
2018-03-19T13:09:24.903Z,26.00
2018-03-19T13:11:53.117Z,28.70
2018-03-19T13:14:20.564Z,28.50
2018-03-19T13:16:48.008Z,26.20
2018-03-19T13:19:15.457Z,27.00
2018-03-19T13:21:43.667Z,25.90
2018-03-19T13:24:11.113Z,25.90
2018-03-19T13:26:38.560Z,27.00
2018-03-19T13:29:06.052Z,27.60
2018-03-19T13:31:33.497Z,29.30
2018-03-19T13:34:00.942Z,30.20
2018-03-19T13:36:28.429Z,29.10
2018-03-19T13:38:55.880Z,27.30
2018-03-19T13:41:23.332Z,27.60
2018-03-19T13:43:50.792Z,27.80
2018-03-19T13:46:18.288Z,27.40
2018-03-19T13:48:45.709Z,26.10
2018-03-19T13:51:13.260Z,25.50
2018-03-19T13:53:40.832Z,26.00
2018-03-19T13:56:08.281Z,26.50
2018-03-19T13:58:35.836Z,25.50
2018-03-19T14:01:03.395Z,26.20
2018-03-19T14:03:30.840Z,26.20
2018-03-19T14:05:58.410Z,27.10
2018-03-19T14:08:25.865Z,28.00
2018-03-19T14:10:53.318Z,28.20
2018-03-19T14:13:20.773Z,29.50
2018-03-19T14:15:48.220Z,29.40
2018-03-19T14:18:15.674Z,28.90
2018-03-19T14:20:43.124Z,29.80
2018-03-19T14:23:10.572Z,29.50
2018-03-19T14:25:38.030Z,30.00
2018-03-19T14:28:05.550Z,28.90
2018-03-19T14:30:32.920Z,29.00
2018-03-19T14:33:00.369Z,30.90
2018-03-19T14:35:28.584Z,31.30
2018-03-19T14:37:56.020Z,31.20
2018-03-19T14:40:23.495Z,30.00
2018-03-19T14:42:50.987Z,30.20
2018-03-19T14:45:18.393Z,31.80
2018-03-19T14:47:45.836Z,31.50
2018-03-19T14:50:13.283Z,32.00
2018-03-19T14:52:41.492Z,33.60
2018-03-19T14:55:08.956Z,33.60
2018-03-19T14:57:36.417Z,34.30
2018-03-19T15:00:03.876Z,37.30
2018-03-19T15:02:31.318Z,34.40
2018-03-19T15:04:58.760Z,34.40
2018-03-19T15:07:26.200Z,35.10
2018-03-19T15:09:53.645Z,34.50
2018-03-19T15:12:21.853Z,35.80
2018-03-19T15:14:49.300Z,35.80
2018-03-19T15:17:16.744Z,35.40
2018-03-19T15:19:44.185Z,36.20
2018-03-19T15:22:12.415Z,37.20
2018-03-19T15:24:39.865Z,37.10
2018-03-19T15:27:07.309Z,37.30
2018-03-19T15:29:34.753Z,39.80
2018-03-19T15:32:02.200Z,38.80
2018-03-19T15:34:29.644Z,36.80
2018-03-19T15:36:57.851Z,38.50
2018-03-19T15:39:25.296Z,38.50
2018-03-19T15:41:52.750Z,38.40
2018-03-19T15:44:20.207Z,39.10
2018-03-19T15:46:47.652Z,37.90
2018-03-19T15:49:15.093Z,37.50
2018-03-19T15:51:43.304Z,40.10
2018-03-19T15:54:10.756Z,40.10
2018-03-19T15:56:38.196Z,40.00
2018-03-19T15:59:05.644Z,40.50
2018-03-19T16:01:33.852Z,41.10
2018-03-19T16:04:01.301Z,41.10
2018-03-19T16:06:28.756Z,41.10
2018-03-19T16:08:56.224Z,42.10
2018-03-19T16:11:23.726Z,40.90
2018-03-19T16:13:51.165Z,40.90
2018-03-19T16:16:18.607Z,41.00
2018-03-19T16:18:46.061Z,40.80
2018-03-19T16:21:13.560Z,42.30
2018-03-19T16:23:41.836Z,42.20
2018-03-19T16:26:10.088Z,45.00
2018-03-19T16:28:37.581Z,45.00
2018-03-19T16:31:05.064Z,44.10
2018-03-19T16:33:32.520Z,44.70
2018-03-19T16:36:00.123Z,45.40
2018-03-19T16:38:27.621Z,45.20
2018-03-19T16:40:55.072Z,44.30
2018-03-19T16:43:22.534Z,45.10
2018-03-19T16:45:49.981Z,45.90
2018-03-19T16:48:17.429Z,45.60
2018-03-19T16:50:45.648Z,46.60
2018-03-19T16:53:13.870Z,46.60
2018-03-19T16:55:42.084Z,48.50
2018-03-19T16:58:09.556Z,48.50
2018-03-19T17:00:37.008Z,47.70
2018-03-19T17:03:04.452Z,48.10
2018-03-19T17:05:31.900Z,48.80
2018-03-19T17:07:59.344Z,49.30
2018-03-19T17:10:26.793Z,50.10
2018-03-19T17:12:55.009Z,50.10
2018-03-19T17:15:22.460Z,50.10
2018-03-19T17:17:49.913Z,50.50
2018-03-19T17:20:17.373Z,50.10
2018-03-19T17:22:44.819Z,50.80
2018-03-19T17:25:12.405Z,52.40
2018-03-19T17:27:39.918Z,51.90
2018-03-19T17:30:07.459Z,51.50
2018-03-19T17:32:34.940Z,51.40
2018-03-19T17:35:02.424Z,51.60
2018-03-19T17:37:29.890Z,53.80
2018-03-19T17:39:57.379Z,53.60
2018-03-19T17:42:25.618Z,53.60
2018-03-19T17:44:53.176Z,53.50
2018-03-19T17:47:20.660Z,54.50
2018-03-19T17:49:48.127Z,53.60
2018-03-19T17:52:17.328Z,55.10
2018-03-19T17:54:45.600Z,55.50
2018-03-19T17:57:13.870Z,55.00
2018-03-19T17:59:41.295Z,54.90
2018-03-19T18:02:08.760Z,55.40
2018-03-19T18:04:36.307Z,55.40
2018-03-19T18:07:03.784Z,56.00
2018-03-19T18:09:31.247Z,55.60
2018-03-19T18:11:58.718Z,55.90
2018-03-19T18:14:26.968Z,56.50
2018-03-19T18:16:54.464Z,56.50
2018-03-19T18:19:21.925Z,56.60
2018-03-19T18:21:49.393Z,56.90
2018-03-19T18:24:16.861Z,57.30
2018-03-19T18:26:44.325Z,56.90
2018-03-19T18:29:11.792Z,57.00
2018-03-19T18:31:39.326Z,57.40
2018-03-19T18:34:06.808Z,59.50
2018-03-19T18:36:34.302Z,58.60
2018-03-19T18:39:02.542Z,59.40
2018-03-19T18:41:30.023Z,59.40
2018-03-19T18:43:57.486Z,59.70
2018-03-19T18:46:25.727Z,59.20
2018-03-19T18:48:53.192Z,59.30
2018-03-19T18:51:20.702Z,59.90
2018-03-19T18:53:48.160Z,59.20
2018-03-19T18:56:15.635Z,59.60
2018-03-19T18:58:43.091Z,60.50
2018-03-19T19:01:10.555Z,59.00
2018-03-19T19:03:38.021Z,59.30
2018-03-19T19:06:05.498Z,59.20
2018-03-19T19:08:32.950Z,60.20
2018-03-19T19:11:00.413Z,59.80
2018-03-19T19:13:27.891Z,60.20
2018-03-19T19:15:56.122Z,60.50
2018-03-19T19:18:24.350Z,61.70
2018-03-19T19:20:51.818Z,61.80
2018-03-19T19:23:19.282Z,59.90
2018-03-19T19:25:46.737Z,60.60
2018-03-19T19:28:14.189Z,61.50
2018-03-19T19:30:41.657Z,61.10
2018-03-19T19:33:09.139Z,60.10
2018-03-19T19:35:36.601Z,61.10
2018-03-19T19:38:04.531Z,61.30
2018-03-19T19:40:32.003Z,60.70
2018-03-19T19:42:59.483Z,61.40
2018-03-19T19:45:26.956Z,61.90
2018-03-19T19:47:55.192Z,63.50
2018-03-19T19:50:22.664Z,63.40
2018-03-19T19:52:50.134Z,62.00
2018-03-19T19:55:17.617Z,63.40
2018-03-19T19:57:45.948Z,61.50
2018-03-19T20:00:13.510Z,61.50
2018-03-19T20:02:40.989Z,60.90
2018-03-19T20:05:08.454Z,61.10
2018-03-19T20:07:36.024Z,60.10
2018-03-19T20:10:04.256Z,60.80
2018-03-19T20:12:31.717Z,60.80
2018-03-19T20:14:59.382Z,62.80
2018-03-19T20:17:27.735Z,61.50
2018-03-19T20:19:55.414Z,60.70
2018-03-19T20:22:24.751Z,61.00
2018-03-19T20:24:52.459Z,60.60
2018-03-19T20:27:20.156Z,61.60
2018-03-19T20:29:48.558Z,62.70
2018-03-19T20:32:16.154Z,62.60
2018-03-19T20:34:43.820Z,63.70
2018-03-19T20:37:11.548Z,63.40
2018-03-19T20:39:40.065Z,61.60
2018-03-19T20:42:07.716Z,61.60
2018-03-19T20:44:35.361Z,61.30
2018-03-19T20:47:03.090Z,60.70
2018-03-19T20:49:33.175Z,61.60
2018-03-19T20:52:00.868Z,61.60
2018-03-19T20:54:29.443Z,61.60
2018-03-19T20:56:57.068Z,61.60
2018-03-19T20:59:24.827Z,62.70
2018-03-19T21:01:53.818Z,62.20
2018-03-19T21:04:21.513Z,61.50
2018-03-19T21:06:50.154Z,61.30
2018-03-19T21:09:17.784Z,61.80
2018-03-19T21:11:46.223Z,63.40
2018-03-19T21:14:13.891Z,63.40
2018-03-19T21:16:41.563Z,62.90
2018-03-19T21:19:10.000Z,62.10
2018-03-19T21:21:37.602Z,62.00
2018-03-19T21:24:06.010Z,62.70
2018-03-19T21:26:33.647Z,62.10
2018-03-19T21:29:01.250Z,64.20
2018-03-19T21:31:28.743Z,64.50
2018-03-19T21:33:56.209Z,65.50
2018-03-19T21:36:23.661Z,63.30
2018-03-19T21:38:52.073Z,60.90
2018-03-19T21:41:19.524Z,60.30
2018-03-19T21:43:47.248Z,60.70
2018-03-19T21:46:14.696Z,62.80
2018-03-19T21:48:42.152Z,61.90
2018-03-19T21:51:09.608Z,61.90
2018-03-19T21:53:37.080Z,61.50
2018-03-19T21:56:04.533Z,60.90
2018-03-19T21:58:31.983Z,61.30
2018-03-19T22:00:59.436Z,62.00
2018-03-19T22:03:26.893Z,59.80
2018-03-19T22:05:54.340Z,59.00
2018-03-19T22:08:21.805Z,59.50
2018-03-19T22:10:49.256Z,59.40
2018-03-19T22:13:16.713Z,59.30
2018-03-19T22:15:44.174Z,62.80
2018-03-19T22:18:11.629Z,62.70
2018-03-19T22:20:39.090Z,63.00
2018-03-19T22:23:06.549Z,65.80
2018-03-19T22:25:34.001Z,66.10
2018-03-19T22:28:01.455Z,67.60
2018-03-19T22:30:28.904Z,67.80
2018-03-19T22:32:56.361Z,67.10
2018-03-19T22:35:23.823Z,66.60
2018-03-19T22:37:51.280Z,68.20
2018-03-19T22:40:18.733Z,69.80
2018-03-19T22:42:46.186Z,69.60
2018-03-19T22:45:13.644Z,69.30
2018-03-19T22:47:41.104Z,70.30
2018-03-19T22:50:08.561Z,71.20
2018-03-19T22:52:36.016Z,72.10
2018-03-19T22:55:03.470Z,72.90
2018-03-19T22:57:30.916Z,71.00
2018-03-19T22:59:58.379Z,70.40
2018-03-19T23:02:26.249Z,71.80
2018-03-19T23:07:57.404Z,68.90
2018-03-19T23:10:24.873Z,68.90
2018-03-19T23:12:52.342Z,70.90
2018-03-19T23:15:19.850Z,70.70
2018-03-19T23:17:48.034Z,72.50
2018-03-19T23:20:16.178Z,72.50
2018-03-19T23:22:43.669Z,72.60
2018-03-19T23:25:11.952Z,76.30
2018-03-19T23:27:39.422Z,76.30
2018-03-19T23:30:06.895Z,74.80
2018-03-19T23:32:34.373Z,76.80
2018-03-19T23:35:01.850Z,78.10
2018-03-19T23:37:29.349Z,77.20
2018-03-19T23:39:56.830Z,76.20
2018-03-19T23:42:24.322Z,76.90
2018-03-19T23:44:51.798Z,76.80
2018-03-19T23:47:19.274Z,75.70
2018-03-19T23:49:47.330Z,76.50
2018-03-19T23:52:14.775Z,75.40
2018-03-19T23:54:42.256Z,76.20
2018-03-19T23:57:09.817Z,75.40
2018-03-19T23:59:37.318Z,76.30
